Time;durP1;ratioP1;P1;durP2;ratioP2;P2;SDS_P1;SDS_P2;PMS_P1;PMS_P2;Temp;Humidity;BMP_temperature;BMP_pressure;BME280_temperature;BME280_humidity;BME280_pressure;Samples;Min_cycle;Max_cycle;Signal;HPM_P1;HPM_P2
2024/04/02 04:01:32;;;;;;;1.20;1.10;;;9.70;97.30;;;;;;5785685;23;20492;-88
2024/04/02 04:04:04;;;;;;;0.97;0.87;;;9.70;97.30;;;;;;4969753;28;20448;-90
2024/04/02 04:06:33;;;;;;;1.07;0.97;;;9.70;97.30;;;;;;4983281;28;20433;-89
2024/04/02 04:09:30;;;;;;;2.60;1.70;;;9.70;97.30;;;;;;4977558;28;20445;-86
2024/04/02 04:12:12;;;;;;;0.90;0.80;;;9.70;97.30;;;;;;4990429;28;20452;-88
2024/04/02 04:14:41;;;;;;;0.90;0.80;;;9.70;97.30;;;;;;4978074;28;20530;-88
2024/04/02 04:17:24;;;;;;;0.87;0.83;;;9.70;97.30;;;;;;4977937;28;20484;-88
2024/04/02 04:20:29;;;;;;;0.90;0.80;;;9.70;97.30;;;;;;4974228;28;20433;-87
2024/04/02 04:22:54;;;;;;;1.10;1.00;;;9.70;97.30;;;;;;4975031;28;20451;-89
2024/04/02 04:25:23;;;;;;;1.00;0.90;;;9.60;97.30;;;;;;4990292;28;20951;-89
2024/04/02 04:27:51;;;;;;;0.97;0.87;;;9.60;97.30;;;;;;4982643;28;20264;-90
2024/04/02 04:30:19;;;;;;;0.83;0.77;;;9.60;97.30;;;;;;4978149;28;20462;-88
2024/04/02 04:32:54;;;;;;;0.90;0.80;;;9.60;97.30;;;;;;4983886;28;20843;-88
2024/04/02 04:35:20;;;;;;;0.97;0.90;;;9.60;97.30;;;;;;4988297;28;20424;-90
2024/04/02 04:37:45;;;;;;;0.93;0.83;;;9.50;97.30;;;;;;4982068;28;20505;-89
2024/04/02 04:40:12;;;;;;;1.27;1.17;;;9.50;97.30;;;;;;4983875;28;20239;-89
2024/04/02 04:42:37;;;;;;;1.93;1.83;;;9.50;97.30;;;;;;4978974;28;20260;-88
2024/04/02 04:45:03;;;;;;;2.53;1.50;;;9.50;97.30;;;;;;4981026;28;20424;-88
2024/04/02 04:47:29;;;;;;;0.90;0.80;;;9.50;97.30;;;;;;4986145;28;20280;-89
2024/04/02 04:50:02;;;;;;;1.10;1.00;;;9.40;97.30;;;;;;4984416;28;20481;-88
2024/04/02 04:53:11;;;;;;;1.27;1.00;;;9.40;97.30;;;;;;4981434;28;20312;-87
2024/04/02 04:56:03;;;;;;;1.00;0.90;;;9.40;97.30;;;;;;4973998;28;20428;-88
2024/04/02 04:58:33;;;;;;;1.20;1.10;;;9.40;97.30;;;;;;4967073;28;20428;-89
2024/04/02 05:01:04;;;;;;;0.90;0.80;;;9.50;97.30;;;;;;4977645;28;20560;-89
2024/04/02 05:03:41;;;;;;;1.23;1.13;;;9.50;97.30;;;;;;4982802;28;20425;-88
2024/04/02 05:06:14;;;;;;;0.90;0.80;;;9.60;97.30;;;;;;4983487;28;20429;-87
2024/04/02 05:08:44;;;;;;;1.83;0.90;;;9.60;97.30;;;;;;4983085;28;20456;-88
2024/04/02 05:11:12;;;;;;;0.90;0.80;;;9.60;97.30;;;;;;4984420;28;20487;-89
2024/04/02 05:13:51;;;;;;;1.57;1.47;;;9.60;97.30;;;;;;4985311;28;20605;-89
2024/04/02 05:16:24;;;;;;;2.60;1.43;;;9.70;97.30;;;;;;4984756;28;20949;-88
2024/04/02 05:18:52;;;;;;;1.00;0.90;;;9.70;97.30;;;;;;4984942;28;20431;-88
2024/04/02 05:21:24;;;;;;;1.03;0.97;;;9.70;97.30;;;;;;4986685;28;20475;-90
2024/04/02 05:23:52;;;;;;;0.93;0.83;;;9.80;97.30;;;;;;4981034;28;20546;-89
2024/04/02 05:26:21;;;;;;;0.80;0.70;;;9.80;97.30;;;;;;4983718;28;20433;-87
2024/04/02 05:28:55;;;;;;;0.93;0.83;;;9.80;97.30;;;;;;5046870;27;20786;-68
2024/04/02 05:31:20;;;;;;;1.00;0.90;;;9.90;97.30;;;;;;5045888;27;21063;-68
2024/04/02 05:33:46;;;;;;;1.10;1.00;;;9.90;97.30;;;;;;5068576;27;20210;-69
2024/04/02 05:36:11;;;;;;;0.90;0.80;;;9.90;97.30;;;;;;5068283;27;20209;-68
2024/04/02 05:38:37;;;;;;;1.00;0.90;;;10.00;97.30;;;;;;5068160;27;20180;-68
2024/04/02 05:41:02;;;;;;;2.60;1.10;;;10.00;97.30;;;;;;5065393;27;20286;-69
2024/04/02 05:43:28;;;;;;;0.80;0.70;;;10.00;97.30;;;;;;5060051;27;20296;-69
2024/04/02 05:45:54;;;;;;;0.83;0.73;;;10.00;97.30;;;;;;5046466;27;20640;-69
2024/04/02 05:48:19;;;;;;;22.87;1.57;;;10.00;97.30;;;;;;5043732;27;20504;-68
2024/04/02 05:51:03;;;;;;;0.80;0.80;;;10.00;97.30;;;;;;5091974;27;20283;-69
2024/04/02 05:53:29;;;;;;;0.80;0.80;;;10.00;97.30;;;;;;5053658;27;20185;-69
2024/04/02 05:55:55;;;;;;;23.93;1.40;;;10.00;97.30;;;;;;5062004;27;21065;-69
2024/04/02 05:58:20;;;;;;;0.97;0.87;;;10.00;97.30;;;;;;5044046;27;20411;-68
2024/04/02 06:00:46;;;;;;;1.00;0.90;;;10.00;97.30;;;;;;5064980;27;20257;-68
2024/04/02 06:03:11;;;;;;;0.90;0.80;;;10.00;97.30;;;;;;5075829;27;20191;-67
2024/04/02 06:05:37;;;;;;;1.47;1.13;;;10.10;97.30;;;;;;5039046;27;20187;-68
2024/04/02 06:08:03;;;;;;;1.00;0.90;;;10.10;97.30;;;;;;5045482;27;20215;-68
2024/04/02 06:10:29;;;;;;;1.63;1.53;;;10.20;97.30;;;;;;5047296;27;20215;-68
2024/04/02 06:12:55;;;;;;;1.67;1.53;;;10.20;97.30;;;;;;5039012;27;20241;-67
2024/04/02 06:15:21;;;;;;;1.20;1.13;;;10.30;97.30;;;;;;5066861;27;20423;-69
2024/04/02 06:17:47;;;;;;;1.00;0.90;;;10.30;97.30;;;;;;5039957;27;20268;-67
2024/04/02 06:20:12;;;;;;;1.00;0.90;;;10.30;97.30;;;;;;5048167;27;20430;-68
2024/04/02 06:22:38;;;;;;;0.83;0.73;;;10.30;97.30;;;;;;5050462;27;20181;-68
2024/04/02 06:25:04;;;;;;;1.40;1.30;;;10.30;97.30;;;;;;5056199;27;20761;-67
2024/04/02 06:27:29;;;;;;;0.97;0.87;;;10.30;97.30;;;;;;5036880;27;20239;-68
2024/04/02 06:29:55;;;;;;;1.10;1.00;;;10.40;97.30;;;;;;5050126;27;20963;-67
2024/04/02 06:32:21;;;;;;;2.30;1.10;;;10.50;97.30;;;;;;5039993;27;20201;-66
2024/04/02 06:34:46;;;;;;;1.27;1.20;;;10.50;97.30;;;;;;5113018;27;20176;-66
2024/04/02 06:37:12;;;;;;;0.77;0.70;;;10.70;97.30;;;;;;5094646;27;20429;-65
2024/04/02 06:39:37;;;;;;;0.90;0.80;;;10.80;97.30;;;;;;5060586;27;20185;-66
2024/04/02 06:42:03;;;;;;;1.50;0.93;;;10.90;97.30;;;;;;5075893;27;20286;-66
2024/04/02 06:44:29;;;;;;;1.00;0.90;;;11.10;97.30;;;;;;5027697;28;20272;-68
2024/04/02 06:46:54;;;;;;;1.13;1.03;;;11.20;97.30;;;;;;5035517;28;20219;-65
2024/04/02 06:49:20;;;;;;;4.80;1.37;;;11.40;97.30;;;;;;5026271;28;20178;-67
2024/04/02 06:51:48;;;;;;;0.90;0.80;;;11.30;97.30;;;;;;5053927;27;20224;-67
2024/04/02 06:54:13;;;;;;;0.87;0.77;;;11.20;97.30;;;;;;5030034;28;20190;-68
2024/04/02 06:56:39;;;;;;;0.97;0.87;;;11.10;97.30;;;;;;5071246;27;20422;-66
2024/04/02 06:59:04;;;;;;;0.90;0.80;;;11.10;97.30;;;;;;5058014;27;20260;-68
2024/04/02 07:01:30;;;;;;;1.30;1.03;;;11.10;97.30;;;;;;5051023;27;20676;-67
2024/04/02 07:03:56;;;;;;;0.90;0.80;;;11.10;97.30;;;;;;5058876;27;20647;-67
2024/04/02 07:06:21;;;;;;;1.10;1.00;;;11.10;97.30;;;;;;5023961;28;20427;-69
2024/04/02 07:08:47;;;;;;;1.13;1.10;;;11.10;97.30;;;;;;5056254;27;20192;-67
2024/04/02 07:11:15;;;;;;;0.97;0.87;;;11.10;97.30;;;;;;5051659;27;20283;-68
2024/04/02 07:13:40;;;;;;;1.20;1.00;;;11.10;97.30;;;;;;5077000;27;20177;-67
2024/04/02 07:16:06;;;;;;;1.30;1.20;;;11.10;97.30;;;;;;5073062;27;20404;-66
2024/04/02 07:18:35;;;;;;;1.30;1.20;;;11.10;97.30;;;;;;5050680;27;20177;-68
2024/04/02 07:21:05;;;;;;;1.20;1.10;;;11.20;97.30;;;;;;5030039;27;20199;-66
2024/04/02 07:23:32;;;;;;;0.90;0.80;;;11.30;97.30;;;;;;5070459;27;20906;-67
2024/04/02 07:25:58;;;;;;;0.90;0.80;;;11.40;97.30;;;;;;5050727;27;20426;-69
2024/04/02 07:28:24;;;;;;;1.00;1.00;;;11.60;97.30;;;;;;5050167;27;20493;-66
2024/04/02 07:30:50;;;;;;;0.90;0.80;;;11.70;97.30;;;;;;5052826;27;20674;-67
2024/04/02 07:33:16;;;;;;;0.70;0.70;;;11.60;97.30;;;;;;5020935;28;20431;-67
2024/04/02 07:35:42;;;;;;;1.07;0.97;;;11.50;97.30;;;;;;5022099;28;20424;-67
2024/04/02 07:38:09;;;;;;;1.77;1.60;;;11.50;97.30;;;;;;5029939;28;20435;-68
2024/04/02 07:40:34;;;;;;;1.57;1.20;;;11.70;97.30;;;;;;5035208;28;20447;-65
2024/04/02 07:43:00;;;;;;;0.97;0.87;;;11.80;97.30;;;;;;5056048;27;20808;-65
2024/04/02 07:45:26;;;;;;;1.17;1.07;;;11.80;97.30;;;;;;5046634;27;20191;-67
2024/04/02 07:47:51;;;;;;;1.00;0.90;;;11.90;97.30;;;;;;5030407;27;20582;-66
2024/04/02 07:50:17;;;;;;;0.93;0.83;;;12.00;97.30;;;;;;5047788;27;20179;-65
2024/04/02 07:52:43;;;;;;;0.90;0.80;;;12.10;97.30;;;;;;5083179;27;20177;-67
2024/04/02 07:55:08;;;;;;;0.90;0.80;;;12.10;97.30;;;;;;5040010;27;20170;-65
2024/04/02 07:57:34;;;;;;;1.20;1.10;;;12.00;97.30;;;;;;5044620;27;20424;-66
2024/04/02 07:59:59;;;;;;;1.57;1.47;;;12.00;97.30;;;;;;5050120;27;20183;-67
2024/04/02 08:02:25;;;;;;;1.33;1.30;;;11.90;97.30;;;;;;5013572;28;20523;-67
2024/04/02 08:04:52;;;;;;;1.17;1.10;;;11.90;97.30;;;;;;5055609;27;20225;-66
2024/04/02 08:07:18;;;;;;;0.90;0.80;;;11.80;97.30;;;;;;5031520;27;20200;-67
2024/04/02 08:09:44;;;;;;;0.90;0.80;;;11.80;97.30;;;;;;5069177;27;20552;-67
2024/04/02 08:12:10;;;;;;;0.70;0.70;;;11.80;97.30;;;;;;5023708;28;20510;-66
2024/04/02 08:14:36;;;;;;;0.80;0.70;;;12.00;97.30;;;;;;5047018;27;20455;-66
2024/04/02 08:17:03;;;;;;;0.70;0.70;;;12.10;97.30;;;;;;5049666;27;20358;-67
2024/04/02 08:19:29;;;;;;;0.87;0.83;;;12.00;97.30;;;;;;5024989;27;21001;-69
2024/04/02 08:21:55;;;;;;;0.93;0.83;;;12.00;97.30;;;;;;5046523;27;20465;-66
2024/04/02 08:24:21;;;;;;;3.70;3.13;;;12.10;97.30;;;;;;5022299;28;20926;-67
2024/04/02 08:26:47;;;;;;;0.90;0.80;;;12.40;97.30;;;;;;5040449;27;20189;-69
2024/04/02 08:29:13;;;;;;;0.70;0.70;;;12.30;96.70;;;;;;5023478;28;20431;-67
2024/04/02 08:31:38;;;;;;;1.00;0.90;;;12.30;96.50;;;;;;5041868;27;20189;-64
2024/04/02 08:34:04;;;;;;;2.40;1.57;;;12.30;96.70;;;;;;5026855;27;20722;-65
2024/04/02 08:36:29;;;;;;;2.30;1.00;;;12.40;96.70;;;;;;5017733;28;20190;-64
2024/04/02 08:38:55;;;;;;;0.70;0.70;;;12.40;96.40;;;;;;5022692;28;20198;-65
2024/04/02 08:41:25;;;;;;;1.23;1.10;;;12.50;96.50;;;;;;5022283;28;20201;-65
2024/04/02 08:43:55;;;;;;;1.67;1.63;;;12.70;96.10;;;;;;5026752;28;20196;-65
2024/04/02 08:46:20;;;;;;;1.00;0.90;;;12.80;95.70;;;;;;5012577;28;20412;-66
2024/04/02 08:48:47;;;;;;;1.20;1.10;;;12.80;95.50;;;;;;5031949;27;20869;-64
2024/04/02 08:51:14;;;;;;;0.70;0.70;;;12.80;95.20;;;;;;5029221;27;20562;-66
2024/04/02 08:53:40;;;;;;;0.90;0.80;;;12.90;95.00;;;;;;5047710;27;20426;-65
2024/04/02 08:56:06;;;;;;;0.70;0.70;;;13.10;95.00;;;;;;5040027;27;20422;-66
2024/04/02 08:58:33;;;;;;;0.80;0.70;;;13.40;94.70;;;;;;5023413;28;20656;-66
2024/04/02 09:01:03;;;;;;;0.97;0.90;;;13.40;93.70;;;;;;5025621;27;21051;-66
2024/04/02 09:03:30;;;;;;;1.03;0.93;;;13.40;93.50;;;;;;5050115;27;20427;-69
2024/04/02 09:05:57;;;;;;;1.00;0.90;;;13.60;94.00;;;;;;5020174;28;20923;-67
2024/04/02 09:08:23;;;;;;;0.80;0.80;;;13.60;93.60;;;;;;5042623;27;20508;-66
2024/04/02 09:10:48;;;;;;;0.83;0.77;;;13.30;93.40;;;;;;5043421;27;20446;-65
2024/04/02 09:13:15;;;;;;;1.00;0.90;;;13.00;94.10;;;;;;5035371;28;20184;-67
2024/04/02 09:15:41;;;;;;;0.90;0.80;;;12.90;94.30;;;;;;5036481;27;20627;-67
2024/04/02 09:18:06;;;;;;;0.80;0.70;;;12.70;94.40;;;;;;5023479;28;20513;-69
2024/04/02 09:20:33;;;;;;;0.70;0.70;;;12.70;95.20;;;;;;5037264;28;20202;-67
2024/04/02 09:22:59;;;;;;;6.50;1.40;;;13.00;95.00;;;;;;5032089;27;20172;-67
2024/04/02 09:25:26;;;;;;;0.90;0.80;;;13.40;94.70;;;;;;5042597;28;20438;-66
2024/04/02 09:27:52;;;;;;;1.37;1.27;;;13.50;94.00;;;;;;5051537;28;20493;-66
2024/04/02 09:30:18;;;;;;;1.07;0.90;;;13.40;93.60;;;;;;5031343;27;20414;-66
2024/04/02 09:32:46;;;;;;;0.90;0.80;;;13.10;94.00;;;;;;5026788;28;20606;-66
2024/04/02 09:35:27;;;;;;;0.70;0.70;;;12.90;94.90;;;;;;5045930;28;20447;-66
2024/04/02 09:37:53;;;;;;;0.70;0.70;;;12.80;94.80;;;;;;5021669;28;20428;-66
2024/04/02 09:40:19;;;;;;;0.90;0.80;;;12.90;95.10;;;;;;5030001;28;20455;-67
2024/04/02 09:42:48;;;;;;;1.17;1.07;;;13.00;94.90;;;;;;5015999;28;20177;-67
2024/04/02 09:45:15;;;;;;;0.80;0.70;;;13.20;95.10;;;;;;5024372;28;20442;-65
2024/04/02 09:47:46;;;;;;;0.90;0.80;;;13.50;94.30;;;;;;5020693;28;20468;-67
2024/04/02 09:50:12;;;;;;;0.70;0.70;;;13.60;93.60;;;;;;5044776;27;20408;-67
2024/04/02 09:52:39;;;;;;;0.83;0.80;;;13.70;93.30;;;;;;5032666;28;20420;-65
2024/04/02 09:55:07;;;;;;;0.90;0.80;;;13.80;92.60;;;;;;5023663;28;20450;-64
2024/04/02 09:57:33;;;;;;;0.70;0.70;;;14.00;91.70;;;;;;5017261;28;20908;-65
2024/04/02 09:59:59;;;;;;;1.93;1.33;;;14.20;92.70;;;;;;5033430;28;20422;-66
2024/04/02 10:02:28;;;;;;;0.90;0.80;;;14.20;91.30;;;;;;5020894;28;20796;-66
2024/04/02 10:04:55;;;;;;;0.87;0.80;;;14.20;92.00;;;;;;5014361;28;20272;-66
2024/04/02 10:07:32;;;;;;;0.70;0.70;;;14.20;91.70;;;;;;5033561;28;20508;-65
2024/04/02 10:09:59;;;;;;;0.70;0.70;;;14.40;90.90;;;;;;5028384;28;20427;-67
2024/04/02 10:12:32;;;;;;;0.90;0.80;;;14.30;91.20;;;;;;5065025;28;20600;-66
2024/04/02 10:15:02;;;;;;;1.30;1.03;;;14.10;91.50;;;;;;5039878;28;20434;-66
2024/04/02 10:17:28;;;;;;;1.03;1.00;;;14.00;91.90;;;;;;5050656;27;20428;-67
2024/04/02 10:19:54;;;;;;;1.37;1.27;;;13.90;92.60;;;;;;5050679;27;20430;-65
2024/04/02 10:22:39;;;;;;;0.90;0.80;;;14.00;92.30;;;;;;5075450;27;20439;-68
2024/04/02 10:25:12;;;;;;;0.80;0.70;;;14.40;91.40;;;;;;5022641;28;20214;-65
2024/04/02 10:27:43;;;;;;;0.70;0.70;;;14.50;91.60;;;;;;5038425;28;20745;-66
2024/04/02 10:30:20;;;;;;;1.00;0.90;;;14.50;90.50;;;;;;5046182;28;20874;-65
2024/04/02 10:32:47;;;;;;;0.90;0.80;;;14.20;91.70;;;;;;5115965;27;20410;-64
2024/04/02 10:35:18;;;;;;;0.70;0.70;;;14.10;91.10;;;;;;5047166;28;20414;-65
2024/04/02 10:37:46;;;;;;;1.10;1.00;;;13.90;91.60;;;;;;5044855;27;20512;-67
2024/04/02 10:40:11;;;;;;;0.70;0.70;;;13.80;91.30;;;;;;5041086;27;20427;-65
2024/04/02 10:42:38;;;;;;;2.50;1.00;;;13.80;91.30;;;;;;5043452;28;20426;-64
2024/04/02 10:45:06;;;;;;;1.10;1.00;;;14.10;91.10;;;;;;5060496;22;20165;-85
2024/04/02 10:47:31;;;;;;;0.70;0.70;;;14.00;90.90;;;;;;5054643;28;20457;-84
2024/04/02 10:49:57;;;;;;;1.07;0.97;;;14.20;91.40;;;;;;5072486;28;20470;-84
2024/04/02 10:52:23;;;;;;;1.10;0.87;;;14.30;90.30;;;;;;5072795;28;20718;-84
2024/04/02 10:54:48;;;;;;;0.70;0.70;;;14.20;89.90;;;;;;5059549;28;20179;-84
2024/04/02 10:57:14;;;;;;;3.63;1.00;;;14.20;89.60;;;;;;5041156;28;20288;-83
2024/04/02 10:59:43;;;;;;;1.17;0.90;;;14.20;90.20;;;;;;5036855;28;20242;-84
2024/04/02 11:02:18;;;;;;;1.00;0.90;;;14.10;90.30;;;;;;5034711;28;20300;-84
2024/04/02 11:04:44;;;;;;;0.77;0.70;;;14.00;90.60;;;;;;5039002;28;20426;-84
2024/04/02 11:07:11;;;;;;;0.70;0.70;;;14.00;90.80;;;;;;5041451;28;20485;-83
2024/04/02 11:09:39;;;;;;;0.70;0.70;;;14.20;90.30;;;;;;5039200;28;21061;-83
2024/04/02 11:12:07;;;;;;;1.00;0.80;;;14.10;90.40;;;;;;5038925;28;20414;-83
2024/04/02 11:14:34;;;;;;;0.90;0.80;;;13.90;90.20;;;;;;5039036;28;20414;-83
2024/04/02 11:16:59;;;;;;;8.63;1.13;;;13.70;90.30;;;;;;5036825;28;20458;-83
2024/04/02 11:19:25;;;;;;;0.70;0.70;;;13.80;91.00;;;;;;5039211;28;20414;-84
2024/04/02 11:24:57;;;;;;;0.90;0.80;;;14.00;91.00;;;;;;5038907;28;20184;-84
2024/04/02 11:24:58;;;;;;;0.80;0.80;;;14.00;90.80;;;;;;5050088;28;20176;-84
2024/04/02 11:27:25;;;;;;;1.23;0.90;;;14.00;90.60;;;;;;5038662;28;21068;-85
2024/04/02 11:29:51;;;;;;;0.70;0.70;;;13.80;90.50;;;;;;5039433;28;20446;-84
2024/04/02 11:32:17;;;;;;;0.83;0.77;;;14.00;91.10;;;;;;5035787;28;20560;-85
2024/04/02 11:34:43;;;;;;;0.60;0.60;;;14.00;90.60;;;;;;5035855;28;20716;-86
2024/04/02 11:37:08;;;;;;;0.70;0.70;;;13.80;90.80;;;;;;5038689;28;20266;-84
2024/04/02 11:39:35;;;;;;;0.77;0.70;;;13.70;91.70;;;;;;5037757;28;20176;-84
2024/04/02 11:42:00;;;;;;;1.37;1.30;;;13.60;91.60;;;;;;5053686;28;20620;-83
2024/04/02 11:44:26;;;;;;;1.00;0.90;;;13.50;91.50;;;;;;5038399;28;20501;-85
2024/04/02 11:46:51;;;;;;;0.80;0.70;;;13.40;91.60;;;;;;5037414;28;20250;-85
2024/04/02 11:49:17;;;;;;;0.80;0.70;;;13.40;91.90;;;;;;5037747;28;20179;-84
2024/04/02 11:51:43;;;;;;;0.70;0.70;;;13.40;92.20;;;;;;5037710;28;20574;-84
2024/04/02 11:54:09;;;;;;;0.80;0.70;;;13.50;92.30;;;;;;5035337;28;20187;-84
2024/04/02 12:02:02;;;;;;;1.57;1.10;;;13.90;91.50;;;;;;5057151;28;20425;-84
2024/04/02 12:04:28;;;;;;;1.57;1.20;;;14.30;91.10;;;;;;5036906;28;20419;-87
2024/04/02 12:06:57;;;;;;;0.90;0.80;;;14.40;89.10;;;;;;5036779;28;20721;-84
2024/04/02 12:09:22;;;;;;;6.20;1.40;;;14.30;89.70;;;;;;5037106;28;20611;-86
2024/04/02 12:11:50;;;;;;;0.70;0.70;;;14.20;90.90;;;;;;5032143;28;20431;-85
2024/04/02 12:14:15;;;;;;;0.70;0.70;;;13.90;91.00;;;;;;5033406;28;20826;-84
2024/04/02 12:16:43;;;;;;;0.83;0.77;;;13.80;91.80;;;;;;5032925;28;20450;-86
2024/04/02 12:19:08;;;;;;;0.90;0.80;;;13.70;91.60;;;;;;5050674;28;20187;-84
2024/04/02 12:21:34;;;;;;;0.80;0.70;;;13.60;92.00;;;;;;5032940;28;20418;-83
2024/04/02 12:23:59;;;;;;;0.90;0.80;;;13.60;91.90;;;;;;5050787;28;20180;-84
2024/04/02 12:26:24;;;;;;;1.00;0.90;;;13.70;92.60;;;;;;5032918;28;20282;-83
2024/04/02 12:28:50;;;;;;;0.73;0.70;;;13.60;91.80;;;;;;5032676;28;20214;-86
2024/04/02 12:31:16;;;;;;;0.83;0.80;;;13.50;91.90;;;;;;5032732;28;20311;-84
2024/04/02 12:33:41;;;;;;;0.90;0.80;;;13.50;92.90;;;;;;5032760;28;20176;-86
2024/04/02 12:36:07;;;;;;;0.70;0.70;;;13.50;92.50;;;;;;5032697;28;20203;-84
2024/04/02 12:38:33;;;;;;;0.70;0.70;;;13.50;97.30;;;;;;5032696;28;20358;-86
2024/04/02 12:41:04;;;;;;;1.00;0.90;;;13.60;97.20;;;;;;5032766;28;20451;-83
2024/04/02 12:43:30;;;;;;;0.70;0.70;;;13.80;96.30;;;;;;5043164;28;20544;-84
2024/04/02 12:45:55;;;;;;;2.07;1.73;;;13.80;94.50;;;;;;5038464;28;20751;-87
2024/04/02 12:48:21;;;;;;;0.60;0.60;;;13.80;92.60;;;;;;5031302;28;20214;-86
2024/04/02 12:50:54;;;;;;;0.70;0.70;;;13.70;93.00;;;;;;5032068;28;20569;-87
2024/04/02 12:53:20;;;;;;;0.90;0.80;;;13.80;92.80;;;;;;5031207;28;20218;-87
2024/04/02 12:55:47;;;;;;;3.07;1.97;;;14.10;92.90;;;;;;5032686;28;20496;-87
2024/04/02 12:58:12;;;;;;;1.77;1.67;;;14.00;93.50;;;;;;5032116;28;20480;-87
2024/04/02 13:00:38;;;;;;;1.10;1.00;;;14.00;94.30;;;;;;5050251;28;20422;-87
2024/04/02 13:03:04;;;;;;;1.00;0.90;;;14.00;95.00;;;;;;5031927;28;20286;-87
2024/04/02 13:05:37;;;;;;;0.80;0.70;;;14.00;94.10;;;;;;5032186;28;20446;-84
2024/04/02 13:08:03;;;;;;;0.73;0.67;;;13.90;91.00;;;;;;5031904;28;20476;-87
2024/04/02 13:10:31;;;;;;;0.87;0.77;;;13.80;87.30;;;;;;5032132;28;20506;-87
2024/04/02 13:12:57;;;;;;;1.80;1.03;;;13.90;87.50;;;;;;5032196;28;20426;-86
2024/04/02 13:15:29;;;;;;;0.80;0.70;;;14.00;88.10;;;;;;5031716;28;20452;-86
2024/04/02 13:17:54;;;;;;;0.77;0.73;;;14.10;88.90;;;;;;5031774;28;20199;-87
2024/04/02 13:20:21;;;;;;;0.80;0.70;;;14.30;88.10;;;;;;5049889;28;20445;-86
2024/04/02 13:22:46;;;;;;;4.50;0.90;;;15.00;87.20;;;;;;5049961;28;20769;-87
2024/04/02 13:25:11;;;;;;;1.13;1.03;;;15.20;86.90;;;;;;5032120;28;20461;-86
2024/04/02 13:27:37;;;;;;;0.83;0.77;;;15.20;86.10;;;;;;5049700;28;20204;-86
2024/04/02 13:30:03;;;;;;;0.90;0.80;;;15.20;85.40;;;;;;5031947;28;20179;-86
2024/04/02 13:32:29;;;;;;;0.93;0.90;;;15.80;84.70;;;;;;5031997;28;20405;-87
2024/04/02 13:34:55;;;;;;;0.97;0.87;;;16.20;82.50;;;;;;5032263;28;20471;-87
2024/04/02 13:37:21;;;;;;;1.40;1.30;;;16.60;82.80;;;;;;5031960;28;20673;-86
2024/04/02 13:39:46;;;;;;;0.67;0.67;;;16.80;81.90;;;;;;5031949;28;20426;-86
2024/04/02 13:42:12;;;;;;;0.90;0.80;;;16.40;81.50;;;;;;5049761;28;20238;-87
2024/04/02 13:44:37;;;;;;;0.97;0.87;;;16.20;81.10;;;;;;5031961;28;20649;-86
2024/04/02 13:47:03;;;;;;;0.93;0.83;;;16.00;81.80;;;;;;5031730;28;20238;-85
2024/04/02 13:49:30;;;;;;;0.90;0.80;;;15.50;82.10;;;;;;5051739;28;20726;-86
2024/04/02 13:51:57;;;;;;;1.20;1.10;;;15.20;82.80;;;;;;5036283;28;20453;-87
2024/04/02 13:54:23;;;;;;;0.70;0.60;;;14.90;83.70;;;;;;5053759;28;20445;-86
2024/04/02 13:56:48;;;;;;;0.70;0.70;;;14.60;84.90;;;;;;5035978;28;20854;-86
2024/04/02 13:59:14;;;;;;;0.90;0.80;;;14.30;87.50;;;;;;5053101;28;20559;-84
2024/04/02 14:01:40;;;;;;;4.50;1.10;;;14.20;89.50;;;;;;5043118;28;20226;-86
2024/04/02 14:04:05;;;;;;;1.97;1.33;;;14.20;90.40;;;;;;5053330;28;20203;-84
2024/04/02 14:06:31;;;;;;;0.90;0.80;;;14.30;89.70;;;;;;5052618;28;20442;-85
2024/04/02 14:08:56;;;;;;;0.70;0.70;;;14.40;89.30;;;;;;5035786;28;20230;-84
2024/04/02 14:11:22;;;;;;;0.90;0.80;;;14.50;89.60;;;;;;5035941;28;20188;-87
2024/04/02 14:13:47;;;;;;;0.90;0.80;;;14.20;89.90;;;;;;5053120;28;20178;-85
2024/04/02 14:16:14;;;;;;;1.40;1.40;;;14.30;90.80;;;;;;5035627;28;20207;-85
2024/04/02 14:18:41;;;;;;;0.90;0.80;;;14.50;90.00;;;;;;5053406;28;20184;-85
2024/04/02 14:21:06;;;;;;;0.70;0.70;;;14.60;89.60;;;;;;5035549;28;20569;-84
2024/04/02 14:23:35;;;;;;;0.70;0.70;;;15.10;87.60;;;;;;5035198;28;20901;-85
2024/04/02 14:26:08;;;;;;;0.90;0.80;;;15.60;86.00;;;;;;5035440;28;20697;-85
2024/04/02 14:28:39;;;;;;;1.07;0.97;;;15.70;83.40;;;;;;5053948;28;20470;-85
2024/04/02 14:31:15;;;;;;;1.00;0.90;;;15.60;83.50;;;;;;5046701;28;20422;-84
2024/04/02 14:33:40;;;;;;;0.80;0.70;;;15.50;83.00;;;;;;5054411;28;20425;-85
2024/04/02 14:36:06;;;;;;;1.27;1.17;;;15.20;83.70;;;;;;5053645;28;20430;-84
2024/04/02 14:38:32;;;;;;;0.70;0.70;;;14.90;84.20;;;;;;5035276;28;20278;-83
2024/04/02 14:41:06;;;;;;;0.90;0.80;;;14.70;84.50;;;;;;5043289;28;20192;-85
2024/04/02 14:43:32;;;;;;;1.33;0.90;;;14.60;84.90;;;;;;5040013;28;20210;-84
2024/04/02 14:46:02;;;;;;;0.90;0.90;;;14.50;85.20;;;;;;5048396;28;20838;-85
2024/04/02 14:48:31;;;;;;;3.13;1.00;;;14.40;85.50;;;;;;5060073;28;20466;-85
2024/04/02 14:50:59;;;;;;;2.70;1.77;;;14.50;86.00;;;;;;5035133;28;20661;-85
2024/04/02 14:53:25;;;;;;;0.90;0.80;;;14.40;85.70;;;;;;5034577;28;20441;-85
2024/04/02 14:55:55;;;;;;;1.10;1.00;;;14.40;85.70;;;;;;5034659;28;20434;-85
2024/04/02 14:58:21;;;;;;;0.70;0.70;;;14.40;85.70;;;;;;5034412;28;20196;-84
2024/04/02 15:00:47;;;;;;;0.93;0.83;;;14.40;86.00;;;;;;5051846;28;20487;-84
2024/04/02 15:03:13;;;;;;;0.80;0.70;;;14.40;86.10;;;;;;5034474;28;20191;-84
2024/04/02 15:05:39;;;;;;;0.70;0.70;;;14.40;85.70;;;;;;5034304;28;20457;-85
2024/04/02 15:08:06;;;;;;;0.73;0.70;;;14.50;86.20;;;;;;5034021;28;20465;-84
2024/04/02 15:10:32;;;;;;;0.70;0.70;;;14.40;85.00;;;;;;5034999;28;20184;-85
2024/04/02 15:12:58;;;;;;;0.70;0.70;;;14.30;85.60;;;;;;5034413;28;20788;-85
2024/04/02 15:15:24;;;;;;;1.40;1.20;;;14.30;85.70;;;;;;5034154;28;20446;-85
2024/04/02 15:17:49;;;;;;;0.70;0.70;;;14.30;85.60;;;;;;5034260;28;21061;-85
2024/04/02 15:20:15;;;;;;;1.20;1.10;;;14.30;85.10;;;;;;5044157;28;20694;-85
2024/04/02 15:22:40;;;;;;;0.77;0.70;;;14.40;85.40;;;;;;5039003;28;20286;-84
2024/04/02 15:25:07;;;;;;;0.70;0.70;;;14.50;85.00;;;;;;5033197;28;20269;-85
2024/04/02 15:27:32;;;;;;;0.70;0.70;;;15.00;83.80;;;;;;5032992;28;20306;-85
2024/04/02 15:29:58;;;;;;;0.90;0.80;;;15.30;83.30;;;;;;5034153;28;20991;-84
2024/04/02 15:32:23;;;;;;;0.80;0.70;;;15.90;81.20;;;;;;5036214;28;20202;-85
2024/04/02 15:34:49;;;;;;;1.07;0.97;;;16.50;80.30;;;;;;5032444;28;20181;-84
2024/04/02 15:37:15;;;;;;;1.00;0.90;;;16.20;80.20;;;;;;5034082;28;20192;-84
2024/04/02 15:39:41;;;;;;;1.57;1.47;;;16.00;80.80;;;;;;5035975;28;20735;-85
2024/04/02 15:42:06;;;;;;;0.60;0.60;;;15.80;81.30;;;;;;5033012;28;20447;-85
2024/04/02 15:44:32;;;;;;;1.90;1.10;;;16.00;81.50;;;;;;5033983;28;20179;-85
2024/04/02 15:46:58;;;;;;;0.90;0.80;;;15.90;81.80;;;;;;5030240;28;20702;-85
2024/04/02 15:49:23;;;;;;;0.60;0.60;;;16.20;81.70;;;;;;5030374;28;20184;-85
2024/04/02 15:51:49;;;;;;;0.70;0.70;;;16.70;80.80;;;;;;5030230;28;20180;-86
2024/04/02 15:54:15;;;;;;;0.90;0.80;;;16.30;80.90;;;;;;5029998;28;20184;-85
2024/04/02 15:56:41;;;;;;;0.70;0.70;;;15.80;81.90;;;;;;5026861;28;20197;-85
2024/04/02 15:59:07;;;;;;;2.00;1.37;;;15.30;83.20;;;;;;5027469;28;20430;-86
2024/04/02 16:01:34;;;;;;;1.00;0.90;;;15.90;82.60;;;;;;5030617;28;20415;-86
2024/04/02 16:04:00;;;;;;;0.70;0.70;;;16.90;81.00;;;;;;5030133;28;20211;-85
2024/04/02 16:06:26;;;;;;;0.70;0.70;;;17.30;79.30;;;;;;5021856;28;20524;-86
2024/04/02 16:08:52;;;;;;;0.90;0.90;;;17.40;79.50;;;;;;5029730;28;20467;-86
2024/04/02 16:11:17;;;;;;;1.00;0.90;;;16.80;80.30;;;;;;5028746;28;20267;-85
2024/04/02 16:13:43;;;;;;;2.53;1.23;;;16.00;81.70;;;;;;5028801;28;20184;-85
2024/04/02 16:16:13;;;;;;;1.43;1.20;;;15.40;82.80;;;;;;5030678;28;20196;-88
2024/04/02 16:18:41;;;;;;;0.80;0.80;;;15.00;84.10;;;;;;5029852;28;20511;-85
2024/04/02 16:21:19;;;;;;;1.47;1.37;;;14.80;84.90;;;;;;5027773;28;21074;-85
2024/04/02 16:23:45;;;;;;;0.73;0.67;;;14.60;85.20;;;;;;5029743;28;20441;-85
2024/04/02 16:26:12;;;;;;;0.90;0.80;;;14.50;86.00;;;;;;5029597;28;20513;-85
2024/04/02 16:28:39;;;;;;;0.90;0.80;;;14.30;85.80;;;;;;5029931;28;20454;-85
2024/04/02 16:31:07;;;;;;;1.23;0.80;;;14.20;85.90;;;;;;5029524;28;20444;-85
2024/04/02 16:33:33;;;;;;;0.70;0.70;;;14.20;86.00;;;;;;5024599;28;21001;-86
2024/04/02 16:36:12;;;;;;;10.47;0.90;;;14.10;88.20;;;;;;5028527;28;20538;-85
2024/04/02 16:38:39;;;;;;;0.90;0.80;;;14.00;91.50;;;;;;5022831;28;20559;-88
2024/04/02 16:41:06;;;;;;;3.73;1.00;;;13.80;97.30;;;;;;5030845;28;20929;-87
2024/04/02 16:43:35;;;;;;;0.70;0.70;;;13.20;97.30;;;;;;5022424;28;20423;-88
2024/04/02 16:46:01;;;;;;;3.03;1.30;;;13.60;97.30;;;;;;5029367;28;20459;-86
2024/04/02 16:48:26;;;;;;;0.70;0.70;;;13.30;97.30;;;;;;5030452;28;20564;-87
2024/04/02 16:50:52;;;;;;;3.80;1.27;;;13.00;97.30;;;;;;5026510;28;20271;-88
2024/04/02 16:53:17;;;;;;;0.93;0.83;;;13.30;97.30;;;;;;5029621;28;20271;-89
2024/04/02 16:55:43;;;;;;;0.70;0.70;;;13.60;97.30;;;;;;5029633;28;20577;-87